Lemasters, Pennsylvania
Current Conditions -  °F | °C
As of 10:53 AM on Friday 19 Dec 2014 (Local Time) from KHGR Reporting Station
Overcast Overcast  
Wind Chill: 27°   Ceiling: 3000
Heat Index: 36°   Visibility: 10mi
Dew Point: 23°   Wind: 14mph
Humidity: 59%   Direction: 310°NW
Pressure: 30.14"   Gusts: NA
Location:  39.86°N, 77.86°W
Report Text: KHGR 191553Z 31012KT 10SM OVC030 02/M05 A3014 RMK AO2 SLP222 T00221050
Loading
Personal Weather Stations






























Interactive Weather Map New forecast layout! Learn more

10-Day Weather Forecast

Advertisements
Track Severe Weather on mobile